createdAt,value
2023-03-15T00:01:01.780Z,1.89
2023-03-15T00:11:02.049Z,1.79
2023-03-15T00:21:02.132Z,1.72
2023-03-15T00:31:02.676Z,1.72
2023-03-15T00:41:02.546Z,1.64
2023-03-15T00:51:02.886Z,1.72
2023-03-15T01:01:02.965Z,1.64
2023-03-15T01:11:03.239Z,1.61
2023-03-15T01:21:03.372Z,1.55
2023-03-15T01:31:03.564Z,1.57
2023-03-15T01:41:03.722Z,1.60
2023-03-15T01:51:03.958Z,1.61
2023-03-15T02:01:04.093Z,1.62
2023-03-15T02:11:04.312Z,1.72
2023-03-15T02:21:04.768Z,1.80
2023-03-15T02:31:04.675Z,1.73
2023-03-15T02:41:04.694Z,1.87
2023-03-15T02:51:04.832Z,1.80
2023-03-15T03:01:05.027Z,1.80
2023-03-15T03:11:05.237Z,1.52
2023-03-15T03:21:05.208Z,1.32
2023-03-15T03:31:05.533Z,1.28
2023-03-15T03:41:05.632Z,1.22
2023-03-15T03:51:06.034Z,1.28
2023-03-15T04:01:05.992Z,1.06
2023-03-15T04:11:06.256Z,0.98
2023-03-15T04:21:06.436Z,0.86
2023-03-15T04:31:06.843Z,0.82
2023-03-15T04:41:06.800Z,0.75
2023-03-15T04:51:07.054Z,0.72
2023-03-15T05:01:07.338Z,0.65
2023-03-15T05:11:07.648Z,0.45
2023-03-15T05:21:07.704Z,0.48
2023-03-15T05:31:07.866Z,0.49
2023-03-15T05:41:08.162Z,0.45
2023-03-15T05:51:08.194Z,0.46
2023-03-15T06:01:08.419Z,0.57
2023-03-15T06:11:08.598Z,0.64
2023-03-15T06:21:08.798Z,0.62
2023-03-15T06:31:09.116Z,0.67
2023-03-15T06:41:09.518Z,0.88
2023-03-15T06:51:09.430Z,0.92
2023-03-15T07:01:09.802Z,1.24
2023-03-15T07:11:09.698Z,1.62
2023-03-15T07:21:10.024Z,2.06
2023-03-15T07:31:09.995Z,2.27
2023-03-15T07:41:10.225Z,2.49
2023-03-15T07:51:10.361Z,2.70
2023-03-15T08:01:10.565Z,2.85
2023-03-15T08:11:10.698Z,3.20
2023-03-15T08:21:10.913Z,3.49
2023-03-15T08:31:11.168Z,3.65
2023-03-15T08:41:11.315Z,4.00
2023-03-15T08:51:11.632Z,4.29
2023-03-15T09:01:11.687Z,4.37
2023-03-15T09:11:12.206Z,5.78
2023-03-15T09:21:11.960Z,9.15
2023-03-15T09:31:12.244Z,8.72
2023-03-15T09:41:12.368Z,7.37
2023-03-15T09:51:12.775Z,7.15
2023-03-15T10:01:12.672Z,7.23
2023-03-15T10:11:12.708Z,7.22
2023-03-15T10:21:12.893Z,7.89
2023-03-15T10:31:25.658Z,7.26
2023-03-15T10:41:17.821Z,6.94
2023-03-15T10:51:15.201Z,6.65
2023-03-15T11:01:13.507Z,6.69
2023-03-15T11:11:13.744Z,6.99
2023-03-15T11:21:13.819Z,8.22
2023-03-15T11:31:14.119Z,8.50
2023-03-15T11:41:14.983Z,8.51
2023-03-15T11:51:14.417Z,7.67
2023-03-15T12:01:14.493Z,6.80
2023-03-15T12:11:14.776Z,6.61
2023-03-15T12:21:14.976Z,6.80
2023-03-15T12:31:15.164Z,6.62
2023-03-15T12:41:15.160Z,6.54
2023-03-15T12:51:15.422Z,5.75
2023-03-15T13:01:15.580Z,6.07
2023-03-15T13:11:15.740Z,6.73
2023-03-15T13:21:16.056Z,6.38
2023-03-15T13:31:16.142Z,6.50
2023-03-15T13:41:16.244Z,6.21
2023-03-15T13:51:16.391Z,5.95
2023-03-15T14:01:16.546Z,6.07
2023-03-15T14:11:17.156Z,5.93
2023-03-15T14:21:16.853Z,5.56
2023-03-15T14:31:17.122Z,5.27
2023-03-15T14:41:17.202Z,5.43
2023-03-15T14:51:17.454Z,5.82
2023-03-15T15:01:17.573Z,6.04
2023-03-15T15:11:17.894Z,5.56
2023-03-15T15:21:17.845Z,5.63
2023-03-15T15:31:18.538Z,5.07
2023-03-15T15:41:18.394Z,5.09
2023-03-15T15:51:18.465Z,4.77
2023-03-15T16:01:18.592Z,4.43
2023-03-15T16:11:18.955Z,3.80
2023-03-15T16:21:18.900Z,3.70
2023-03-15T16:31:19.096Z,3.50
2023-03-15T16:41:19.210Z,3.57
2023-03-15T16:51:19.472Z,3.64
2023-03-15T17:01:19.611Z,3.61
2023-03-15T17:11:19.799Z,3.61
2023-03-15T17:21:19.870Z,3.58
2023-03-15T17:31:24.873Z,3.49
2023-03-15T17:41:21.351Z,3.42
2023-03-15T17:51:20.812Z,3.39
2023-03-15T18:01:20.902Z,3.21
2023-03-15T18:11:21.058Z,3.16
2023-03-15T18:21:20.947Z,3.06
2023-03-15T18:31:21.368Z,2.87
2023-03-15T18:41:21.301Z,2.79
2023-03-15T18:51:21.635Z,2.61
2023-03-15T19:01:21.854Z,2.46
2023-03-15T19:11:21.888Z,2.40
2023-03-15T19:21:22.050Z,2.38
2023-03-15T19:31:22.195Z,2.34
2023-03-15T19:41:22.299Z,2.37
2023-03-15T19:51:22.451Z,2.20
2023-03-15T20:01:23.053Z,2.16
2023-03-15T20:11:22.865Z,1.75
2023-03-15T20:21:22.972Z,1.43
2023-03-15T20:31:23.274Z,1.62
2023-03-15T20:41:23.369Z,1.08
2023-03-15T20:51:23.623Z,0.80
2023-03-15T21:01:23.723Z,0.72
2023-03-15T21:11:24.074Z,1.06
2023-03-15T21:21:24.139Z,0.71
2023-03-15T21:31:24.468Z,0.20
2023-03-15T21:41:24.700Z,0.10
2023-03-15T21:51:24.716Z,0.31
2023-03-15T22:01:24.956Z,0.16
2023-03-15T22:11:25.251Z,0.31
2023-03-15T22:21:25.204Z,0.27
2023-03-15T22:31:25.471Z,0.24
2023-03-15T22:41:25.549Z,0.25
2023-03-15T22:51:25.730Z,-0.29
2023-03-15T23:01:25.948Z,-0.29
2023-03-15T23:11:26.170Z,-0.36
2023-03-15T23:21:26.574Z,-0.50
2023-03-15T23:31:26.626Z,-0.51
2023-03-15T23:41:26.708Z,-0.55
2023-03-15T23:51:27.140Z,-0.30
